sensor_id;sensor_type;location;lat;lon;timestamp;temperature;humidity
3528;DHT22;1778;47.966;7.854;2023-08-07T00:00:00;12.80;99.90
3528;DHT22;1778;47.966;7.854;2023-08-07T00:01:05;12.80;99.90
3528;DHT22;1778;47.966;7.854;2023-08-07T00:02:07;12.80;99.90
3528;DHT22;1778;47.966;7.854;2023-08-07T00:03:09;12.80;99.90
3528;DHT22;1778;47.966;7.854;2023-08-07T00:04:12;12.80;99.90
3528;DHT22;1778;47.966;7.854;2023-08-07T00:05:14;12.80;99.90
3528;DHT22;1778;47.966;7.854;2023-08-07T00:06:17;12.80;99.90
3528;DHT22;1778;47.966;7.854;2023-08-07T00:07:19;12.80;99.90
3528;DHT22;1778;47.966;7.854;2023-08-07T00:08:20;12.80;99.90
3528;DHT22;1778;47.966;7.854;2023-08-07T00:09:22;12.80;99.90
3528;DHT22;1778;47.966;7.854;2023-08-07T00:10:23;12.70;99.90
3528;DHT22;1778;47.966;7.854;2023-08-07T00:11:25;12.80;99.90
3528;DHT22;1778;47.966;7.854;2023-08-07T00:12:29;12.80;99.90
3528;DHT22;1778;47.966;7.854;2023-08-07T00:13:30;12.80;99.90
3528;DHT22;1778;47.966;7.854;2023-08-07T00:14:32;12.80;99.90
3528;DHT22;1778;47.966;7.854;2023-08-07T00:15:33;12.80;99.90
3528;DHT22;1778;47.966;7.854;2023-08-07T00:16:35;12.80;99.90
3528;DHT22;1778;47.966;7.854;2023-08-07T00:17:37;12.80;99.90
3528;DHT22;1778;47.966;7.854;2023-08-07T00:18:39;12.80;99.90
3528;DHT22;1778;47.966;7.854;2023-08-07T00:19:41;12.80;99.90
3528;DHT22;1778;47.966;7.854;2023-08-07T00:20:42;12.80;99.90
3528;DHT22;1778;47.966;7.854;2023-08-07T00:21:44;12.80;99.90
3528;DHT22;1778;47.966;7.854;2023-08-07T00:22:45;12.80;99.90
3528;DHT22;1778;47.966;7.854;2023-08-07T00:23:46;12.80;99.90
3528;DHT22;1778;47.966;7.854;2023-08-07T00:24:48;12.80;99.90
3528;DHT22;1778;47.966;7.854;2023-08-07T00:25:50;12.80;99.90
3528;DHT22;1778;47.966;7.854;2023-08-07T00:26:51;12.80;99.90
3528;DHT22;1778;47.966;7.854;2023-08-07T00:27:53;12.80;99.90
3528;DHT22;1778;47.966;7.854;2023-08-07T00:28:55;12.80;99.90
3528;DHT22;1778;47.966;7.854;2023-08-07T00:29:57;12.80;99.90
3528;DHT22;1778;47.966;7.854;2023-08-07T00:30:58;12.80;99.90
3528;DHT22;1778;47.966;7.854;2023-08-07T00:32:00;12.80;99.90
3528;DHT22;1778;47.966;7.854;2023-08-07T00:33:01;12.80;99.90
3528;DHT22;1778;47.966;7.854;2023-08-07T00:34:04;12.80;99.90
3528;DHT22;1778;47.966;7.854;2023-08-07T00:35:06;12.80;99.90
3528;DHT22;1778;47.966;7.854;2023-08-07T00:36:09;12.80;99.90
3528;DHT22;1778;47.966;7.854;2023-08-07T00:37:10;12.80;99.90
3528;DHT22;1778;47.966;7.854;2023-08-07T00:38:12;12.80;99.90
3528;DHT22;1778;47.966;7.854;2023-08-07T00:39:14;12.80;99.90
3528;DHT22;1778;47.966;7.854;2023-08-07T00:40:17;12.90;99.90
3528;DHT22;1778;47.966;7.854;2023-08-07T00:41:18;12.80;99.90
3528;DHT22;1778;47.966;7.854;2023-08-07T00:42:20;12.80;99.90
3528;DHT22;1778;47.966;7.854;2023-08-07T00:43:21;12.80;99.90
3528;DHT22;1778;47.966;7.854;2023-08-07T00:44:24;12.80;99.90
3528;DHT22;1778;47.966;7.854;2023-08-07T00:45:25;12.80;99.90
3528;DHT22;1778;47.966;7.854;2023-08-07T00:46:29;12.70;99.90
3528;DHT22;1778;47.966;7.854;2023-08-07T00:47:31;12.80;99.90
3528;DHT22;1778;47.966;7.854;2023-08-07T00:48:32;12.80;99.90
3528;DHT22;1778;47.966;7.854;2023-08-07T00:49:35;12.70;99.90
3528;DHT22;1778;47.966;7.854;2023-08-07T00:50:37;12.70;99.90
3528;DHT22;1778;47.966;7.854;2023-08-07T00:51:48;12.70;99.90
3528;DHT22;1778;47.966;7.854;2023-08-07T00:52:49;12.80;99.90
3528;DHT22;1778;47.966;7.854;2023-08-07T00:53:51;12.80;99.90
3528;DHT22;1778;47.966;7.854;2023-08-07T00:54:53;12.80;99.90
3528;DHT22;1778;47.966;7.854;2023-08-07T00:55:54;12.80;99.90
3528;DHT22;1778;47.966;7.854;2023-08-07T00:57:00;12.80;99.90
3528;DHT22;1778;47.966;7.854;2023-08-07T00:58:03;12.70;99.90
3528;DHT22;1778;47.966;7.854;2023-08-07T00:59:05;12.70;99.90
3528;DHT22;1778;47.966;7.854;2023-08-07T01:00:07;12.80;99.90
3528;DHT22;1778;47.966;7.854;2023-08-07T01:01:09;12.80;99.90
3528;DHT22;1778;47.966;7.854;2023-08-07T01:02:12;12.70;99.90
3528;DHT22;1778;47.966;7.854;2023-08-07T01:03:14;12.70;99.90
3528;DHT22;1778;47.966;7.854;2023-08-07T01:04:15;12.70;99.90
3528;DHT22;1778;47.966;7.854;2023-08-07T01:05:17;12.80;99.90
3528;DHT22;1778;47.966;7.854;2023-08-07T01:06:20;12.70;99.90
3528;DHT22;1778;47.966;7.854;2023-08-07T01:07:22;12.70;99.90
3528;DHT22;1778;47.966;7.854;2023-08-07T01:08:27;12.70;99.90
3528;DHT22;1778;47.966;7.854;2023-08-07T01:09:29;12.80;99.90
3528;DHT22;1778;47.966;7.854;2023-08-07T01:10:46;12.80;99.90
3528;DHT22;1778;47.966;7.854;2023-08-07T01:12:07;12.80;99.90
3528;DHT22;1778;47.966;7.854;2023-08-07T01:15:30;12.80;99.90
3528;DHT22;1778;47.966;7.854;2023-08-07T01:16:50;12.80;99.90
3528;DHT22;1778;47.966;7.854;2023-08-07T01:17:54;12.80;99.90
3528;DHT22;1778;47.966;7.854;2023-08-07T01:18:57;12.80;99.90
3528;DHT22;1778;47.966;7.854;2023-08-07T01:20:00;12.70;99.90
3528;DHT22;1778;47.966;7.854;2023-08-07T01:21:03;12.70;99.90
3528;DHT22;1778;47.966;7.854;2023-08-07T01:22:12;12.70;99.90
3528;DHT22;1778;47.966;7.854;2023-08-07T01:23:13;12.70;99.90
3528;DHT22;1778;47.966;7.854;2023-08-07T01:24:15;12.70;99.90
3528;DHT22;1778;47.966;7.854;2023-08-07T01:25:16;12.70;99.90
3528;DHT22;1778;47.966;7.854;2023-08-07T01:26:20;12.70;99.90
3528;DHT22;1778;47.966;7.854;2023-08-07T01:27:44;12.70;99.90
3528;DHT22;1778;47.966;7.854;2023-08-07T01:29:03;12.60;99.90
3528;DHT22;1778;47.966;7.854;2023-08-07T01:31:16;12.60;99.90
3528;DHT22;1778;47.966;7.854;2023-08-07T01:33:47;12.50;99.90
3528;DHT22;1778;47.966;7.854;2023-08-07T01:34:50;12.60;99.90
3528;DHT22;1778;47.966;7.854;2023-08-07T01:35:57;12.60;99.90
3528;DHT22;1778;47.966;7.854;2023-08-07T01:37:01;12.60;99.90
3528;DHT22;1778;47.966;7.854;2023-08-07T01:38:04;12.60;99.90
3528;DHT22;1778;47.966;7.854;2023-08-07T01:39:06;12.60;99.90
3528;DHT22;1778;47.966;7.854;2023-08-07T01:40:13;12.60;99.90
3528;DHT22;1778;47.966;7.854;2023-08-07T01:41:14;12.60;99.90
3528;DHT22;1778;47.966;7.854;2023-08-07T01:42:16;12.60;99.90
3528;DHT22;1778;47.966;7.854;2023-08-07T01:43:18;12.60;99.90
3528;DHT22;1778;47.966;7.854;2023-08-07T01:44:20;12.60;99.90
3528;DHT22;1778;47.966;7.854;2023-08-07T01:45:26;12.60;99.90
3528;DHT22;1778;47.966;7.854;2023-08-07T01:46:28;12.60;99.90
3528;DHT22;1778;47.966;7.854;2023-08-07T01:47:29;12.50;99.90
3528;DHT22;1778;47.966;7.854;2023-08-07T01:48:31;12.50;99.90
3528;DHT22;1778;47.966;7.854;2023-08-07T01:49:32;12.50;99.90
3528;DHT22;1778;47.966;7.854;2023-08-07T01:50:34;12.50;99.90
3528;DHT22;1778;47.966;7.854;2023-08-07T01:51:37;12.50;99.90
3528;DHT22;1778;47.966;7.854;2023-08-07T01:52:39;12.50;99.90
3528;DHT22;1778;47.966;7.854;2023-08-07T01:53:40;12.40;99.90
3528;DHT22;1778;47.966;7.854;2023-08-07T01:54:41;12.40;99.90
3528;DHT22;1778;47.966;7.854;2023-08-07T01:55:43;12.40;99.90
3528;DHT22;1778;47.966;7.854;2023-08-07T01:56:45;12.40;99.90
3528;DHT22;1778;47.966;7.854;2023-08-07T01:57:46;12.40;99.90
3528;DHT22;1778;47.966;7.854;2023-08-07T01:58:48;12.40;99.90
3528;DHT22;1778;47.966;7.854;2023-08-07T01:59:49;12.40;99.90
3528;DHT22;1778;47.966;7.854;2023-08-07T02:00:51;12.40;99.90
3528;DHT22;1778;47.966;7.854;2023-08-07T02:01:52;12.30;99.90
3528;DHT22;1778;47.966;7.854;2023-08-07T02:02:54;12.40;99.90
3528;DHT22;1778;47.966;7.854;2023-08-07T02:03:56;12.40;99.90
3528;DHT22;1778;47.966;7.854;2023-08-07T02:04:59;12.40;99.90
3528;DHT22;1778;47.966;7.854;2023-08-07T02:06:00;12.40;99.90
3528;DHT22;1778;47.966;7.854;2023-08-07T02:07:04;12.40;99.90
3528;DHT22;1778;47.966;7.854;2023-08-07T02:08:05;12.30;99.90
3528;DHT22;1778;47.966;7.854;2023-08-07T02:09:07;12.30;99.90
3528;DHT22;1778;47.966;7.854;2023-08-07T02:10:09;12.30;99.90
3528;DHT22;1778;47.966;7.854;2023-08-07T02:11:11;12.30;99.90
3528;DHT22;1778;47.966;7.854;2023-08-07T02:12:12;12.30;99.90
3528;DHT22;1778;47.966;7.854;2023-08-07T02:13:14;12.30;99.90
3528;DHT22;1778;47.966;7.854;2023-08-07T02:14:16;12.30;99.90
3528;DHT22;1778;47.966;7.854;2023-08-07T02:15:18;12.20;99.90
3528;DHT22;1778;47.966;7.854;2023-08-07T02:16:24;12.20;99.90
3528;DHT22;1778;47.966;7.854;2023-08-07T02:17:29;12.20;99.90
3528;DHT22;1778;47.966;7.854;2023-08-07T02:18:34;12.30;99.90
3528;DHT22;1778;47.966;7.854;2023-08-07T02:19:37;12.20;99.90
3528;DHT22;1778;47.966;7.854;2023-08-07T02:20:38;12.20;99.90
3528;DHT22;1778;47.966;7.854;2023-08-07T02:21:40;12.10;99.90
3528;DHT22;1778;47.966;7.854;2023-08-07T02:22:41;12.20;99.90
3528;DHT22;1778;47.966;7.854;2023-08-07T02:23:43;12.20;99.90
3528;DHT22;1778;47.966;7.854;2023-08-07T02:24:44;12.10;99.90
3528;DHT22;1778;47.966;7.854;2023-08-07T02:25:46;12.10;99.90
3528;DHT22;1778;47.966;7.854;2023-08-07T02:26:48;12.10;99.90
3528;DHT22;1778;47.966;7.854;2023-08-07T02:27:49;12.10;99.90
3528;DHT22;1778;47.966;7.854;2023-08-07T02:28:51;12.10;99.90
3528;DHT22;1778;47.966;7.854;2023-08-07T02:29:53;12.20;99.90
3528;DHT22;1778;47.966;7.854;2023-08-07T02:30:57;12.20;99.90
3528;DHT22;1778;47.966;7.854;2023-08-07T02:32:02;12.20;99.90
3528;DHT22;1778;47.966;7.854;2023-08-07T02:33:05;12.20;99.90
3528;DHT22;1778;47.966;7.854;2023-08-07T02:34:06;12.20;99.90
3528;DHT22;1778;47.966;7.854;2023-08-07T02:35:08;12.20;99.90
3528;DHT22;1778;47.966;7.854;2023-08-07T02:36:09;12.20;99.90
3528;DHT22;1778;47.966;7.854;2023-08-07T02:37:11;12.20;99.90
3528;DHT22;1778;47.966;7.854;2023-08-07T02:38:12;12.20;99.90
3528;DHT22;1778;47.966;7.854;2023-08-07T02:39:14;12.20;99.90
3528;DHT22;1778;47.966;7.854;2023-08-07T02:40:16;12.20;99.90
3528;DHT22;1778;47.966;7.854;2023-08-07T02:41:20;12.20;99.90
3528;DHT22;1778;47.966;7.854;2023-08-07T02:42:21;12.20;99.90
3528;DHT22;1778;47.966;7.854;2023-08-07T02:43:23;12.20;99.90
3528;DHT22;1778;47.966;7.854;2023-08-07T02:44:24;12.20;99.90
3528;DHT22;1778;47.966;7.854;2023-08-07T02:45:26;12.20;99.90
3528;DHT22;1778;47.966;7.854;2023-08-07T02:46:27;12.20;99.90
3528;DHT22;1778;47.966;7.854;2023-08-07T02:47:29;12.20;99.90
3528;DHT22;1778;47.966;7.854;2023-08-07T02:48:30;12.20;99.90
3528;DHT22;1778;47.966;7.854;2023-08-07T02:49:32;12.20;99.90
3528;DHT22;1778;47.966;7.854;2023-08-07T02:50:33;12.20;99.90
3528;DHT22;1778;47.966;7.854;2023-08-07T02:51:35;12.20;99.90
3528;DHT22;1778;47.966;7.854;2023-08-07T02:52:37;12.20;99.90
3528;DHT22;1778;47.966;7.854;2023-08-07T02:53:38;12.30;99.90
3528;DHT22;1778;47.966;7.854;2023-08-07T02:54:40;12.30;99.90
3528;DHT22;1778;47.966;7.854;2023-08-07T02:55:43;12.30;99.90
3528;DHT22;1778;47.966;7.854;2023-08-07T02:56:45;12.30;99.90
3528;DHT22;1778;47.966;7.854;2023-08-07T02:57:46;12.30;99.90
3528;DHT22;1778;47.966;7.854;2023-08-07T02:58:48;12.30;99.90
3528;DHT22;1778;47.966;7.854;2023-08-07T02:59:50;12.30;99.90
3528;DHT22;1778;47.966;7.854;2023-08-07T03:00:51;12.30;99.90
3528;DHT22;1778;47.966;7.854;2023-08-07T03:01:53;12.30;99.90
3528;DHT22;1778;47.966;7.854;2023-08-07T03:02:54;12.30;99.90
3528;DHT22;1778;47.966;7.854;2023-08-07T03:03:56;12.30;99.90
3528;DHT22;1778;47.966;7.854;2023-08-07T03:04:58;12.40;99.90
3528;DHT22;1778;47.966;7.854;2023-08-07T03:05:59;12.40;99.90
3528;DHT22;1778;47.966;7.854;2023-08-07T03:07:01;12.40;99.90
3528;DHT22;1778;47.966;7.854;2023-08-07T03:08:03;12.30;99.90
3528;DHT22;1778;47.966;7.854;2023-08-07T03:09:04;12.30;99.90
3528;DHT22;1778;47.966;7.854;2023-08-07T03:10:06;12.30;99.90
3528;DHT22;1778;47.966;7.854;2023-08-07T03:11:08;12.40;99.90
3528;DHT22;1778;47.966;7.854;2023-08-07T03:12:10;12.30;99.90
3528;DHT22;1778;47.966;7.854;2023-08-07T03:13:11;12.40;99.90
3528;DHT22;1778;47.966;7.854;2023-08-07T03:14:13;12.40;99.90
3528;DHT22;1778;47.966;7.854;2023-08-07T03:15:15;12.40;99.90
3528;DHT22;1778;47.966;7.854;2023-08-07T03:16:16;12.40;99.90
3528;DHT22;1778;47.966;7.854;2023-08-07T03:17:18;12.50;99.90
3528;DHT22;1778;47.966;7.854;2023-08-07T03:18:19;12.40;99.90
3528;DHT22;1778;47.966;7.854;2023-08-07T03:19:21;12.40;99.90
3528;DHT22;1778;47.966;7.854;2023-08-07T03:20:23;12.50;99.90
3528;DHT22;1778;47.966;7.854;2023-08-07T03:21:25;12.50;99.90
3528;DHT22;1778;47.966;7.854;2023-08-07T03:22:26;12.40;99.90
3528;DHT22;1778;47.966;7.854;2023-08-07T03:23:29;12.40;99.90
3528;DHT22;1778;47.966;7.854;2023-08-07T03:24:33;12.40;99.90
3528;DHT22;1778;47.966;7.854;2023-08-07T03:25:34;12.50;99.90
3528;DHT22;1778;47.966;7.854;2023-08-07T03:26:36;12.40;99.90
3528;DHT22;1778;47.966;7.854;2023-08-07T03:27:38;12.50;99.90
3528;DHT22;1778;47.966;7.854;2023-08-07T03:28:40;12.50;99.90
3528;DHT22;1778;47.966;7.854;2023-08-07T03:29:41;12.40;99.90
3528;DHT22;1778;47.966;7.854;2023-08-07T03:30:46;12.40;99.90
3528;DHT22;1778;47.966;7.854;2023-08-07T03:31:48;12.40;99.90
3528;DHT22;1778;47.966;7.854;2023-08-07T03:32:51;12.50;99.90
3528;DHT22;1778;47.966;7.854;2023-08-07T03:33:53;12.50;99.90
3528;DHT22;1778;47.966;7.854;2023-08-07T03:34:56;12.50;99.90
3528;DHT22;1778;47.966;7.854;2023-08-07T03:35:58;12.50;99.90
3528;DHT22;1778;47.966;7.854;2023-08-07T03:37:00;12.50;99.90
3528;DHT22;1778;47.966;7.854;2023-08-07T03:38:02;12.50;99.90
3528;DHT22;1778;47.966;7.854;2023-08-07T03:39:04;12.50;99.90
3528;DHT22;1778;47.966;7.854;2023-08-07T03:40:06;12.50;99.90
3528;DHT22;1778;47.966;7.854;2023-08-07T03:41:08;12.60;99.90
3528;DHT22;1778;47.966;7.854;2023-08-07T03:42:12;12.60;99.90
3528;DHT22;1778;47.966;7.854;2023-08-07T03:43:14;12.50;99.90
3528;DHT22;1778;47.966;7.854;2023-08-07T03:44:15;12.60;99.90
3528;DHT22;1778;47.966;7.854;2023-08-07T03:45:17;12.60;99.90
3528;DHT22;1778;47.966;7.854;2023-08-07T03:46:19;12.60;99.90
3528;DHT22;1778;47.966;7.854;2023-08-07T03:47:20;12.60;99.90
3528;DHT22;1778;47.966;7.854;2023-08-07T03:48:22;12.60;99.90
3528;DHT22;1778;47.966;7.854;2023-08-07T03:49:24;12.60;99.90
3528;DHT22;1778;47.966;7.854;2023-08-07T03:50:26;12.70;99.90
3528;DHT22;1778;47.966;7.854;2023-08-07T03:51:28;12.70;99.90
3528;DHT22;1778;47.966;7.854;2023-08-07T03:52:31;12.70;99.90
3528;DHT22;1778;47.966;7.854;2023-08-07T03:53:33;12.70;99.90
3528;DHT22;1778;47.966;7.854;2023-08-07T03:54:35;12.70;99.90
3528;DHT22;1778;47.966;7.854;2023-08-07T03:55:37;12.60;99.90
3528;DHT22;1778;47.966;7.854;2023-08-07T03:56:39;12.70;99.90
3528;DHT22;1778;47.966;7.854;2023-08-07T03:57:41;12.70;99.90
3528;DHT22;1778;47.966;7.854;2023-08-07T03:58:43;12.60;99.90
3528;DHT22;1778;47.966;7.854;2023-08-07T03:59:44;12.60;99.90
3528;DHT22;1778;47.966;7.854;2023-08-07T04:00:46;12.60;99.90
3528;DHT22;1778;47.966;7.854;2023-08-07T04:01:47;12.60;99.90
3528;DHT22;1778;47.966;7.854;2023-08-07T04:02:49;12.60;99.90
3528;DHT22;1778;47.966;7.854;2023-08-07T04:03:50;12.60;99.90
3528;DHT22;1778;47.966;7.854;2023-08-07T04:04:52;12.60;99.90
3528;DHT22;1778;47.966;7.854;2023-08-07T04:05:54;12.60;99.90
3528;DHT22;1778;47.966;7.854;2023-08-07T04:06:56;12.60;99.90
3528;DHT22;1778;47.966;7.854;2023-08-07T04:07:58;12.60;99.90
3528;DHT22;1778;47.966;7.854;2023-08-07T04:09:00;12.70;99.90
3528;DHT22;1778;47.966;7.854;2023-08-07T04:10:02;12.70;99.90
3528;DHT22;1778;47.966;7.854;2023-08-07T04:11:05;12.70;99.90
3528;DHT22;1778;47.966;7.854;2023-08-07T04:12:08;12.60;99.90
3528;DHT22;1778;47.966;7.854;2023-08-07T04:13:11;12.70;99.90
3528;DHT22;1778;47.966;7.854;2023-08-07T04:14:12;12.70;99.90
3528;DHT22;1778;47.966;7.854;2023-08-07T04:15:14;12.70;99.90
3528;DHT22;1778;47.966;7.854;2023-08-07T04:16:16;12.60;99.90
3528;DHT22;1778;47.966;7.854;2023-08-07T04:17:18;12.60;99.90
3528;DHT22;1778;47.966;7.854;2023-08-07T04:18:20;12.60;99.90
3528;DHT22;1778;47.966;7.854;2023-08-07T04:19:22;12.60;99.90
3528;DHT22;1778;47.966;7.854;2023-08-07T04:20:24;12.60;99.90
3528;DHT22;1778;47.966;7.854;2023-08-07T04:21:27;12.60;99.90
3528;DHT22;1778;47.966;7.854;2023-08-07T04:22:28;12.60;99.90
3528;DHT22;1778;47.966;7.854;2023-08-07T04:23:30;12.60;99.90
3528;DHT22;1778;47.966;7.854;2023-08-07T04:24:33;12.60;99.90
3528;DHT22;1778;47.966;7.854;2023-08-07T04:25:34;12.60;99.90
3528;DHT22;1778;47.966;7.854;2023-08-07T04:26:38;12.60;99.90
3528;DHT22;1778;47.966;7.854;2023-08-07T04:27:40;12.60;99.90
3528;DHT22;1778;47.966;7.854;2023-08-07T04:28:42;12.60;99.90
3528;DHT22;1778;47.966;7.854;2023-08-07T04:29:43;12.60;99.90
3528;DHT22;1778;47.966;7.854;2023-08-07T04:30:47;12.60;99.90
3528;DHT22;1778;47.966;7.854;2023-08-07T04:31:50;12.60;99.90
3528;DHT22;1778;47.966;7.854;2023-08-07T04:32:51;12.60;99.90
3528;DHT22;1778;47.966;7.854;2023-08-07T04:33:53;12.60;99.90
3528;DHT22;1778;47.966;7.854;2023-08-07T04:34:54;12.70;99.90
3528;DHT22;1778;47.966;7.854;2023-08-07T04:35:56;12.70;99.90
3528;DHT22;1778;47.966;7.854;2023-08-07T04:36:57;12.70;99.90
3528;DHT22;1778;47.966;7.854;2023-08-07T04:38:00;12.60;99.90
3528;DHT22;1778;47.966;7.854;2023-08-07T04:39:01;12.70;99.90
3528;DHT22;1778;47.966;7.854;2023-08-07T04:40:03;12.70;99.90
3528;DHT22;1778;47.966;7.854;2023-08-07T04:41:06;12.70;99.90
3528;DHT22;1778;47.966;7.854;2023-08-07T04:42:08;12.70;99.90
3528;DHT22;1778;47.966;7.854;2023-08-07T04:43:09;12.70;99.90
3528;DHT22;1778;47.966;7.854;2023-08-07T04:44:11;12.70;99.90
3528;DHT22;1778;47.966;7.854;2023-08-07T04:45:13;12.60;99.90
3528;DHT22;1778;47.966;7.854;2023-08-07T04:46:15;12.70;99.90
3528;DHT22;1778;47.966;7.854;2023-08-07T04:47:17;12.60;99.90
3528;DHT22;1778;47.966;7.854;2023-08-07T04:48:18;12.60;99.90
3528;DHT22;1778;47.966;7.854;2023-08-07T04:49:22;12.60;99.90
3528;DHT22;1778;47.966;7.854;2023-08-07T04:50:23;12.60;99.90
3528;DHT22;1778;47.966;7.854;2023-08-07T04:51:25;12.60;99.90
3528;DHT22;1778;47.966;7.854;2023-08-07T04:52:26;12.60;99.90
3528;DHT22;1778;47.966;7.854;2023-08-07T04:53:28;12.60;99.90
3528;DHT22;1778;47.966;7.854;2023-08-07T04:54:30;12.60;99.90
3528;DHT22;1778;47.966;7.854;2023-08-07T04:55:32;12.60;99.90
3528;DHT22;1778;47.966;7.854;2023-08-07T04:56:33;12.60;99.90
3528;DHT22;1778;47.966;7.854;2023-08-07T04:57:35;12.60;99.90
3528;DHT22;1778;47.966;7.854;2023-08-07T04:58:37;12.70;99.90
3528;DHT22;1778;47.966;7.854;2023-08-07T04:59:39;12.70;99.90
3528;DHT22;1778;47.966;7.854;2023-08-07T05:00:40;12.80;99.90
3528;DHT22;1778;47.966;7.854;2023-08-07T05:01:42;12.70;99.90
3528;DHT22;1778;47.966;7.854;2023-08-07T05:02:44;12.70;99.90
3528;DHT22;1778;47.966;7.854;2023-08-07T05:03:45;12.70;99.90
3528;DHT22;1778;47.966;7.854;2023-08-07T05:04:47;12.70;99.90
3528;DHT22;1778;47.966;7.854;2023-08-07T05:05:49;12.80;99.90
3528;DHT22;1778;47.966;7.854;2023-08-07T05:06:50;12.80;99.90
3528;DHT22;1778;47.966;7.854;2023-08-07T05:07:53;12.80;99.90
3528;DHT22;1778;47.966;7.854;2023-08-07T05:08:55;12.80;99.90
3528;DHT22;1778;47.966;7.854;2023-08-07T05:09:57;12.80;99.90
3528;DHT22;1778;47.966;7.854;2023-08-07T05:11:00;12.80;99.90
3528;DHT22;1778;47.966;7.854;2023-08-07T05:12:02;12.80;99.90
3528;DHT22;1778;47.966;7.854;2023-08-07T05:13:04;12.80;99.90
3528;DHT22;1778;47.966;7.854;2023-08-07T05:14:06;12.80;99.90
3528;DHT22;1778;47.966;7.854;2023-08-07T05:15:07;12.80;99.90
3528;DHT22;1778;47.966;7.854;2023-08-07T05:16:09;12.80;99.90
3528;DHT22;1778;47.966;7.854;2023-08-07T05:17:11;12.80;99.90
3528;DHT22;1778;47.966;7.854;2023-08-07T05:18:14;12.80;99.90
3528;DHT22;1778;47.966;7.854;2023-08-07T05:19:16;12.80;99.90
3528;DHT22;1778;47.966;7.854;2023-08-07T05:20:18;12.80;99.90
3528;DHT22;1778;47.966;7.854;2023-08-07T05:21:19;12.80;99.90
3528;DHT22;1778;47.966;7.854;2023-08-07T05:22:21;12.90;99.90
3528;DHT22;1778;47.966;7.854;2023-08-07T05:23:22;12.80;99.90
3528;DHT22;1778;47.966;7.854;2023-08-07T05:24:24;12.90;99.90
3528;DHT22;1778;47.966;7.854;2023-08-07T05:25:26;12.90;99.90
3528;DHT22;1778;47.966;7.854;2023-08-07T05:26:27;12.80;99.90
3528;DHT22;1778;47.966;7.854;2023-08-07T05:27:31;12.90;99.90
3528;DHT22;1778;47.966;7.854;2023-08-07T05:28:32;12.90;99.90
3528;DHT22;1778;47.966;7.854;2023-08-07T05:29:34;12.80;99.90
3528;DHT22;1778;47.966;7.854;2023-08-07T05:30:36;12.90;99.90
3528;DHT22;1778;47.966;7.854;2023-08-07T05:31:38;12.90;99.90
3528;DHT22;1778;47.966;7.854;2023-08-07T05:32:39;13.00;99.90
3528;DHT22;1778;47.966;7.854;2023-08-07T05:33:41;13.00;99.90
3528;DHT22;1778;47.966;7.854;2023-08-07T05:34:43;13.00;99.90
3528;DHT22;1778;47.966;7.854;2023-08-07T05:35:44;13.00;99.90
3528;DHT22;1778;47.966;7.854;2023-08-07T05:36:46;12.90;99.90
3528;DHT22;1778;47.966;7.854;2023-08-07T05:37:47;12.90;99.90
3528;DHT22;1778;47.966;7.854;2023-08-07T05:38:49;13.00;99.90
3528;DHT22;1778;47.966;7.854;2023-08-07T05:39:50;13.00;99.90
3528;DHT22;1778;47.966;7.854;2023-08-07T05:40:52;13.10;99.90
3528;DHT22;1778;47.966;7.854;2023-08-07T05:41:53;13.10;99.90
3528;DHT22;1778;47.966;7.854;2023-08-07T05:42:56;13.10;99.90
3528;DHT22;1778;47.966;7.854;2023-08-07T05:43:57;13.20;99.90
3528;DHT22;1778;47.966;7.854;2023-08-07T05:44:59;13.10;99.90
3528;DHT22;1778;47.966;7.854;2023-08-07T05:46:01;13.10;99.90
3528;DHT22;1778;47.966;7.854;2023-08-07T05:47:02;13.10;99.90
3528;DHT22;1778;47.966;7.854;2023-08-07T05:48:05;13.10;99.90
3528;DHT22;1778;47.966;7.854;2023-08-07T05:49:07;13.10;99.90
3528;DHT22;1778;47.966;7.854;2023-08-07T05:50:09;13.10;99.90
3528;DHT22;1778;47.966;7.854;2023-08-07T05:51:10;13.20;99.90
3528;DHT22;1778;47.966;7.854;2023-08-07T05:52:12;13.20;99.90
3528;DHT22;1778;47.966;7.854;2023-08-07T05:53:13;13.10;99.90
3528;DHT22;1778;47.966;7.854;2023-08-07T05:54:15;13.20;99.90
3528;DHT22;1778;47.966;7.854;2023-08-07T05:55:16;13.20;99.90
3528;DHT22;1778;47.966;7.854;2023-08-07T05:56:18;13.20;99.90
3528;DHT22;1778;47.966;7.854;2023-08-07T05:57:20;13.30;99.90
3528;DHT22;1778;47.966;7.854;2023-08-07T05:58:22;13.30;99.90
3528;DHT22;1778;47.966;7.854;2023-08-07T05:59:23;13.30;99.90
3528;DHT22;1778;47.966;7.854;2023-08-07T06:00:25;13.40;99.90
3528;DHT22;1778;47.966;7.854;2023-08-07T06:01:26;13.30;99.90
3528;DHT22;1778;47.966;7.854;2023-08-07T06:02:32;13.40;99.90
3528;DHT22;1778;47.966;7.854;2023-08-07T06:03:33;13.40;99.90
3528;DHT22;1778;47.966;7.854;2023-08-07T06:04:35;13.40;99.90
3528;DHT22;1778;47.966;7.854;2023-08-07T06:05:37;13.50;99.90
3528;DHT22;1778;47.966;7.854;2023-08-07T06:06:38;13.60;99.90
3528;DHT22;1778;47.966;7.854;2023-08-07T06:07:41;13.60;99.90
3528;DHT22;1778;47.966;7.854;2023-08-07T06:08:42;13.60;99.90
3528;DHT22;1778;47.966;7.854;2023-08-07T06:09:44;13.70;99.90
3528;DHT22;1778;47.966;7.854;2023-08-07T06:10:45;13.70;99.90
3528;DHT22;1778;47.966;7.854;2023-08-07T06:11:48;13.70;99.90
3528;DHT22;1778;47.966;7.854;2023-08-07T06:12:49;13.80;99.90
3528;DHT22;1778;47.966;7.854;2023-08-07T06:13:51;13.80;99.90
3528;DHT22;1778;47.966;7.854;2023-08-07T06:14:52;13.80;99.90
3528;DHT22;1778;47.966;7.854;2023-08-07T06:15:54;13.90;99.90
3528;DHT22;1778;47.966;7.854;2023-08-07T06:16:56;14.00;99.90
3528;DHT22;1778;47.966;7.854;2023-08-07T06:17:59;14.10;99.90
3528;DHT22;1778;47.966;7.854;2023-08-07T06:19:00;14.10;99.90
3528;DHT22;1778;47.966;7.854;2023-08-07T06:20:02;14.10;99.90
3528;DHT22;1778;47.966;7.854;2023-08-07T06:21:06;14.10;99.90
3528;DHT22;1778;47.966;7.854;2023-08-07T06:22:08;14.20;99.90
3528;DHT22;1778;47.966;7.854;2023-08-07T06:23:09;14.20;99.90
3528;DHT22;1778;47.966;7.854;2023-08-07T06:24:11;14.20;99.90
3528;DHT22;1778;47.966;7.854;2023-08-07T06:25:13;14.20;99.90
3528;DHT22;1778;47.966;7.854;2023-08-07T06:26:15;14.30;99.90
3528;DHT22;1778;47.966;7.854;2023-08-07T06:27:16;14.30;99.90
3528;DHT22;1778;47.966;7.854;2023-08-07T06:28:18;14.30;99.90
3528;DHT22;1778;47.966;7.854;2023-08-07T06:29:20;14.40;99.90
3528;DHT22;1778;47.966;7.854;2023-08-07T06:30:21;14.40;99.90
3528;DHT22;1778;47.966;7.854;2023-08-07T06:31:23;14.50;99.90
3528;DHT22;1778;47.966;7.854;2023-08-07T06:32:25;14.50;99.90
3528;DHT22;1778;47.966;7.854;2023-08-07T06:33:27;14.50;99.90
3528;DHT22;1778;47.966;7.854;2023-08-07T06:34:29;14.50;99.90
3528;DHT22;1778;47.966;7.854;2023-08-07T06:35:30;14.50;99.90
3528;DHT22;1778;47.966;7.854;2023-08-07T06:36:32;14.60;99.90
3528;DHT22;1778;47.966;7.854;2023-08-07T06:37:34;14.60;99.90
3528;DHT22;1778;47.966;7.854;2023-08-07T06:38:35;14.60;99.90
3528;DHT22;1778;47.966;7.854;2023-08-07T06:39:37;14.60;99.90
3528;DHT22;1778;47.966;7.854;2023-08-07T06:40:39;14.60;99.90
3528;DHT22;1778;47.966;7.854;2023-08-07T06:41:41;14.60;99.90
3528;DHT22;1778;47.966;7.854;2023-08-07T06:42:43;14.60;99.90
3528;DHT22;1778;47.966;7.854;2023-08-07T06:43:45;14.70;99.90
3528;DHT22;1778;47.966;7.854;2023-08-07T06:44:47;14.70;99.90
3528;DHT22;1778;47.966;7.854;2023-08-07T06:45:55;14.70;99.90
3528;DHT22;1778;47.966;7.854;2023-08-07T06:46:57;14.70;99.90
3528;DHT22;1778;47.966;7.854;2023-08-07T06:47:58;14.60;99.90
3528;DHT22;1778;47.966;7.854;2023-08-07T06:49:00;14.70;99.90
3528;DHT22;1778;47.966;7.854;2023-08-07T06:50:01;14.70;99.90
3528;DHT22;1778;47.966;7.854;2023-08-07T06:51:03;14.60;99.90